Time;durP1;ratioP1;P1;durP2;ratioP2;P2;SDS_P1;SDS_P2;PMS_P1;PMS_P2;Temp;Humidity;BMP_temperature;BMP_pressure;BME280_temperature;BME280_humidity;BME280_pressure;Samples;Min_cycle;Max_cycle;Signal;HPM_P1;HPM_P2
2021/09/01 00:04:14;;;;;;;12.03;5.40;;;;;15.90;102335.00;;;;12941247;22;20173;-83
2021/09/01 00:09:15;;;;;;;11.90;5.13;;;;;15.90;102336.00;;;;12867130;22;20201;-83
2021/09/01 00:14:17;;;;;;;10.20;4.77;;;;;15.90;102334.00;;;;12869007;22;20173;-83
2021/09/01 00:19:18;;;;;;;12.23;4.57;;;;;15.80;102337.00;;;;12867623;22;20194;-83
2021/09/01 00:24:20;;;;;;;10.07;4.93;;;;;15.80;102330.00;;;;12893749;22;20596;-83
2021/09/01 00:29:21;;;;;;;9.67;4.77;;;;;15.80;102334.00;;;;12867961;22;20181;-83
2021/09/01 00:34:22;;;;;;;6.37;4.00;;;;;15.80;102337.00;;;;12893001;22;20200;-83
2021/09/01 00:39:23;;;;;;;13.90;4.80;;;;;15.80;102332.00;;;;12868565;23;20193;-82
2021/09/01 00:44:28;;;;;;;12.63;4.13;;;;;15.80;102332.00;;;;12892219;22;20174;-84
2021/09/01 00:49:30;;;;;;;14.43;4.67;;;;;15.80;102329.00;;;;12866898;22;20608;-83
2021/09/01 00:54:32;;;;;;;15.47;4.47;;;;;15.80;102326.00;;;;12867619;22;20174;-84
2021/09/01 00:59:37;;;;;;;8.33;3.60;;;;;15.70;102333.00;;;;12842208;22;20204;-83
2021/09/01 01:04:38;;;;;;;13.63;4.95;;;;;15.70;102335.00;;;;12841948;22;20174;-79
2021/09/01 01:09:40;;;;;;;14.30;4.70;;;;;15.70;102328.00;;;;12867975;22;20176;-80
2021/09/01 01:14:45;;;;;;;15.87;4.30;;;;;15.70;102335.00;;;;12893078;22;20170;-79
2021/09/01 01:19:51;;;;;;;18.93;4.83;;;;;15.70;102331.00;;;;12893128;22;20205;-79
2021/09/01 01:25:04;;;;;;;11.40;4.23;;;;;15.70;102332.00;;;;12870072;22;20177;-80
2021/09/01 01:30:21;;;;;;;14.97;4.53;;;;;15.70;102342.00;;;;12869776;22;20602;-79
2021/09/01 01:35:36;;;;;;;13.60;4.80;;;;;15.70;102343.00;;;;12868859;22;20180;-79
2021/09/01 01:40:40;;;;;;;14.57;4.17;;;;;15.70;102335.00;;;;12869115;22;20197;-79
2021/09/01 01:45:44;;;;;;;13.00;4.53;;;;;15.70;102334.00;;;;12869356;22;20165;-79
2021/09/01 01:50:45;;;;;;;14.53;4.43;;;;;15.70;102343.00;;;;12914659;22;20174;-79
2021/09/01 01:55:46;;;;;;;11.40;5.07;;;;;15.60;102340.00;;;;12869576;22;20173;-80
2021/09/01 02:00:49;;;;;;;12.93;4.07;;;;;15.60;102341.00;;;;12868538;22;20205;-79
2021/09/01 02:05:50;;;;;;;14.37;4.23;;;;;15.60;102347.00;;;;12868752;22;20260;-79
2021/09/01 02:10:51;;;;;;;8.57;3.73;;;;;15.50;102332.00;;;;12939586;22;20165;-79
2021/09/01 02:15:53;;;;;;;9.53;4.43;;;;;15.50;102332.00;;;;12892922;22;20189;-79
2021/09/01 02:20:54;;;;;;;14.40;4.07;;;;;15.50;102334.00;;;;12892255;22;20189;-80
2021/09/01 02:25:55;;;;;;;14.13;4.33;;;;;15.50;102332.00;;;;12868925;22;20173;-80
2021/09/01 02:30:57;;;;;;;13.97;4.80;;;;;15.50;102333.00;;;;12868546;22;20608;-80
2021/09/01 02:35:58;;;;;;;12.23;4.40;;;;;15.50;102340.00;;;;12844107;22;20173;-79
2021/09/01 02:40:59;;;;;;;13.20;4.10;;;;;15.50;102338.00;;;;12868607;22;20728;-80
2021/09/01 02:46:01;;;;;;;10.73;4.47;;;;;15.50;102332.00;;;;12892509;22;20169;-80
2021/09/01 02:51:02;;;;;;;16.20;3.97;;;;;15.50;102332.00;;;;12892771;22;20181;-79
2021/09/01 02:56:04;;;;;;;9.37;4.53;;;;;15.50;102329.00;;;;12893059;23;20173;-80
2021/09/01 03:01:05;;;;;;;11.47;4.17;;;;;15.50;102332.00;;;;12892658;22;20295;-80
2021/09/01 03:06:06;;;;;;;9.83;4.83;;;;;15.40;102329.00;;;;12867766;22;20269;-80
2021/09/01 03:11:07;;;;;;;13.30;4.10;;;;;15.40;102319.00;;;;12843133;22;20177;-80
2021/09/01 03:16:09;;;;;;;15.90;4.93;;;;;15.40;102320.00;;;;12892078;22;20212;-80
2021/09/01 03:21:10;;;;;;;8.67;4.00;;;;;15.40;102315.00;;;;12844287;22;20197;-80
2021/09/01 03:26:12;;;;;;;11.77;4.77;;;;;15.30;102304.00;;;;12892485;22;20177;-79
2021/09/01 03:31:13;;;;;;;10.27;4.50;;;;;15.30;102300.00;;;;12844075;22;20173;-79
2021/09/01 03:36:14;;;;;;;12.60;4.80;;;;;15.30;102302.00;;;;12867263;22;20605;-80
2021/09/01 03:41:15;;;;;;;16.30;4.87;;;;;15.30;102304.00;;;;12868164;22;20201;-79
2021/09/01 03:46:16;;;;;;;18.27;4.53;;;;;15.30;102296.00;;;;12891859;22;20173;-79
2021/09/01 03:51:18;;;;;;;12.33;4.93;;;;;15.30;102296.00;;;;12842777;22;20173;-79
2021/09/01 03:56:19;;;;;;;13.07;5.20;;;;;15.30;102292.00;;;;12892634;22;20566;-79
2021/09/01 04:01:20;;;;;;;9.13;4.63;;;;;15.30;102298.00;;;;12867851;22;20197;-79
2021/09/01 04:06:21;;;;;;;15.20;5.23;;;;;15.40;102309.00;;;;12938944;22;20168;-80
2021/09/01 04:11:22;;;;;;;10.57;4.90;;;;;15.40;102305.00;;;;12891735;22;20180;-80
2021/09/01 04:16:24;;;;;;;15.27;5.37;;;;;15.40;102310.00;;;;12867725;22;20190;-80
2021/09/01 04:21:25;;;;;;;15.90;6.20;;;;;15.40;102315.00;;;;12867297;22;20189;-80
2021/09/01 04:26:26;;;;;;;12.03;5.30;;;;;15.40;102318.00;;;;12865988;22;20197;-79
2021/09/01 04:31:27;;;;;;;12.67;4.77;;;;;15.40;102316.00;;;;12892136;22;20177;-79
2021/09/01 04:36:28;;;;;;;13.17;5.33;;;;;15.30;102317.00;;;;12917374;22;20174;-79
2021/09/01 04:41:30;;;;;;;14.07;5.33;;;;;15.30;102325.00;;;;12939214;22;20624;-80
2021/09/01 04:46:31;;;;;;;14.50;4.80;;;;;15.30;102316.00;;;;12844776;22;20176;-80
2021/09/01 04:51:32;;;;;;;10.43;4.73;;;;;15.30;102321.00;;;;12894766;22;20208;-80
2021/09/01 04:56:33;;;;;;;11.43;5.00;;;;;15.40;102336.00;;;;12845099;22;20180;-80
2021/09/01 05:01:35;;;;;;;12.60;5.53;;;;;15.40;102330.00;;;;12919237;22;20205;-80
2021/09/01 05:06:36;;;;;;;16.97;5.33;;;;;15.40;102328.00;;;;12846592;22;20201;-80
2021/09/01 05:11:38;;;;;;;13.40;5.13;;;;;15.40;102334.00;;;;12870063;22;20174;-80
2021/09/01 05:16:39;;;;;;;12.83;5.00;;;;;15.40;102334.00;;;;12846651;22;20244;-80
2021/09/01 05:21:51;;;;;;;8.20;4.07;;;;;15.50;102339.00;;;;12870454;22;20201;-79
2021/09/01 05:27:07;;;;;;;14.37;5.07;;;;;15.50;102350.00;;;;12869648;22;20232;-80
2021/09/01 05:32:15;;;;;;;10.57;4.80;;;;;15.50;102354.00;;;;12869410;22;20864;-79
2021/09/01 05:37:16;;;;;;;14.00;4.60;;;;;15.60;102354.00;;;;12868280;22;20181;-80
2021/09/01 05:42:24;;;;;;;15.73;4.87;;;;;15.60;102354.00;;;;12869741;22;20193;-80
2021/09/01 05:47:25;;;;;;;13.90;4.55;;;;;15.70;102350.00;;;;12844720;22;20173;-80
2021/09/01 05:52:30;;;;;;;15.73;4.97;;;;;15.70;102349.00;;;;12869373;22;20181;-79
2021/09/01 05:57:39;;;;;;;17.30;4.87;;;;;15.70;102353.00;;;;12842309;22;20181;-80
2021/09/01 06:02:53;;;;;;;14.17;4.67;;;;;15.80;102359.00;;;;12870756;22;20649;-80
2021/09/01 06:07:57;;;;;;;9.87;3.87;;;;;15.80;102365.00;;;;12868522;22;20169;-79
2021/09/01 06:13:10;;;;;;;11.57;4.10;;;;;15.90;102362.00;;;;12864839;22;20628;-80
2021/09/01 06:18:11;;;;;;;14.15;4.97;;;;;16.00;102366.00;;;;12887037;22;20202;-80
2021/09/01 06:23:12;;;;;;;11.30;4.30;;;;;16.10;102368.00;;;;12868928;23;20204;-80
2021/09/01 06:28:14;;;;;;;10.55;4.55;;;;;16.20;102367.00;;;;12893244;22;20234;-79
2021/09/01 06:33:15;;;;;;;8.38;3.97;;;;;16.30;102358.00;;;;12868641;22;20206;-79
2021/09/01 06:38:16;;;;;;;7.38;3.63;;;;;16.30;102364.00;;;;12892424;22;20586;-79
2021/09/01 06:43:17;;;;;;;12.87;4.20;;;;;16.40;102375.00;;;;12891593;22;20170;-79
2021/09/01 06:48:20;;;;;;;8.95;4.10;;;;;16.50;102367.00;;;;12842311;22;20804;-79
2021/09/01 06:53:21;;;;;;;11.40;4.43;;;;;16.60;102371.00;;;;12890585;22;20173;-79
2021/09/01 06:58:27;;;;;;;8.68;4.15;;;;;16.70;102374.00;;;;12867114;22;20248;-80
2021/09/01 07:03:28;;;;;;;14.60;5.18;;;;;16.80;102381.00;;;;12867807;22;20166;-80
2021/09/01 07:08:29;;;;;;;15.23;4.70;;;;;16.90;102375.00;;;;12893042;22;20268;-80
2021/09/01 07:13:30;;;;;;;11.57;4.68;;;;;17.00;102391.00;;;;12893404;22;20167;-79
2021/09/01 07:18:32;;;;;;;13.02;3.90;;;;;17.20;102391.00;;;;12892049;22;20205;-79
2021/09/01 07:23:34;;;;;;;8.18;4.20;;;;;17.40;102388.00;;;;12881903;22;20169;-79
2021/09/01 07:28:38;;;;;;;13.02;4.53;;;;;17.60;102384.00;;;;12861841;22;20177;-79
2021/09/01 07:33:39;;;;;;;10.88;4.90;;;;;17.80;102390.00;;;;12886373;22;20169;-79
2021/09/01 07:38:40;;;;;;;8.25;4.75;;;;;18.00;102398.00;;;;12909189;22;20283;-79
2021/09/01 07:43:42;;;;;;;9.90;4.15;;;;;18.20;102391.00;;;;12857688;22;20173;-80
2021/09/01 07:48:43;;;;;;;11.02;4.25;;;;;18.30;102396.00;;;;12857264;22;20181;-79
2021/09/01 07:53:47;;;;;;;11.90;4.47;;;;;18.40;102396.00;;;;12853311;22;20663;-79
2021/09/01 07:58:48;;;;;;;10.52;4.70;;;;;18.50;102401.00;;;;12835676;22;20193;-80
2021/09/01 08:03:49;;;;;;;13.85;4.80;;;;;18.70;102407.00;;;;12885605;22;20176;-80
2021/09/01 08:08:51;;;;;;;12.60;4.55;;;;;18.80;102401.00;;;;12856935;22;20173;-79
2021/09/01 08:13:52;;;;;;;12.82;4.38;;;;;18.90;102412.00;;;;12856750;22;20205;-79
2021/09/01 08:18:54;;;;;;;11.73;4.57;;;;;19.10;102412.00;;;;12859642;22;20193;-80
2021/09/01 08:23:55;;;;;;;7.47;3.47;;;;;19.10;102418.00;;;;12861276;22;20180;-80
2021/09/01 08:28:57;;;;;;;11.23;4.20;;;;;19.30;102424.00;;;;12863345;22;20201;-79
2021/09/01 08:33:58;;;;;;;10.60;4.40;;;;;19.50;102426.00;;;;12865278;22;20171;-80
2021/09/01 08:38:59;;;;;;;13.50;4.20;;;;;19.50;102431.00;;;;12863490;22;20193;-79
2021/09/01 08:44:00;;;;;;;13.63;4.38;;;;;19.70;102428.00;;;;12862884;23;20225;-80
2021/09/01 08:49:02;;;;;;;13.02;4.55;;;;;20.00;102430.00;;;;12863517;22;20236;-80
2021/09/01 08:54:04;;;;;;;12.75;4.68;;;;;20.30;102436.00;;;;12863361;22;20170;-79
2021/09/01 08:59:05;;;;;;;10.15;4.03;;;;;20.60;102431.00;;;;12862857;22;20633;-79
2021/09/01 09:04:14;;;;;;;8.82;4.50;;;;;21.00;102425.00;;;;12909239;22;20173;-80
2021/09/01 09:09:22;;;;;;;15.07;4.30;;;;;21.30;102414.00;;;;12889388;22;20173;-79
2021/09/01 09:14:30;;;;;;;15.30;5.22;;;;;21.70;102410.00;;;;12888817;22;20205;-80
2021/09/01 09:19:50;;;;;;;11.40;4.10;;;;;22.10;102414.00;;;;12864309;22;20236;-80
2021/09/01 09:25:04;;;;;;;8.27;3.30;;;;;22.10;102407.00;;;;12840273;22;20177;-80
2021/09/01 09:30:21;;;;;;;10.25;4.05;;;;;21.70;102419.00;;;;12865595;22;20180;-80
2021/09/01 09:35:24;;;;;;;8.93;4.28;;;;;21.50;102408.00;;;;12865257;22;20181;-80
2021/09/01 09:40:31;;;;;;;8.90;4.13;;;;;21.30;102409.00;;;;12886327;22;20196;-80
2021/09/01 09:45:32;;;;;;;8.13;3.75;;;;;21.60;102407.00;;;;12865057;22;20360;-80
2021/09/01 09:50:34;;;;;;;10.27;4.45;;;;;22.00;102400.00;;;;12839996;22;20177;-80
2021/09/01 09:55:35;;;;;;;9.40;3.95;;;;;22.80;102393.00;;;;12862552;22;20170;-80
2021/09/01 10:00:36;;;;;;;9.82;3.55;;;;;23.00;102404.00;;;;12888249;22;20197;-80
2021/09/01 10:05:38;;;;;;;8.70;3.50;;;;;22.90;102406.00;;;;12887403;22;20178;-80
2021/09/01 10:10:39;;;;;;;11.15;3.90;;;;;22.70;102399.00;;;;12839399;22;20644;-79
2021/09/01 10:15:41;;;;;;;7.93;3.63;;;;;22.20;102386.00;;;;12865717;22;20244;-80
2021/09/01 10:20:45;;;;;;;7.95;3.90;;;;;22.00;102389.00;;;;12892684;22;20221;-80
2021/09/01 10:25:51;;;;;;;8.80;4.18;;;;;21.80;102377.00;;;;12868774;22;20251;-79
2021/09/01 10:31:08;;;;;;;11.95;4.53;;;;;21.60;102382.00;;;;12869531;22;20521;-80
2021/09/01 10:36:24;;;;;;;8.20;4.03;;;;;21.40;102384.00;;;;12858163;22;20556;-80
2021/09/01 10:41:33;;;;;;;10.98;4.45;;;;;21.70;102373.00;;;;12863026;22;20197;-80
2021/09/01 10:46:53;;;;;;;8.38;4.13;;;;;22.40;102383.00;;;;12840847;22;20185;-80
2021/09/01 10:52:04;;;;;;;7.75;4.50;;;;;23.00;102375.00;;;;12928777;22;20185;-80
2021/09/01 10:57:19;;;;;;;9.13;4.18;;;;;23.00;102375.00;;;;12886499;22;20483;-79
2021/09/01 11:02:20;;;;;;;8.10;3.97;;;;;23.20;102364.00;;;;12886160;22;20228;-80
2021/09/01 11:07:27;;;;;;;13.15;4.63;;;;;23.40;102369.00;;;;12914407;22;20178;-80
2021/09/01 11:12:31;;;;;;;7.93;4.47;;;;;22.90;102363.00;;;;12887252;22;20502;-80
2021/09/01 11:17:32;;;;;;;7.70;4.18;;;;;23.60;102352.00;;;;12859287;22;20206;-80
2021/09/01 11:22:37;;;;;;;7.85;4.38;;;;;24.30;102358.00;;;;12837007;22;20890;-80
2021/09/01 11:27:55;;;;;;;6.28;3.72;;;;;24.30;102356.00;;;;12883909;22;20181;-80
2021/09/01 11:32:56;;;;;;;8.25;4.10;;;;;24.30;102359.00;;;;12839440;22;20793;-80
2021/09/01 11:37:59;;;;;;;10.98;3.88;;;;;23.90;102359.00;;;;12856012;22;20181;-80
2021/09/01 11:43:07;;;;;;;6.65;3.65;;;;;23.30;102368.00;;;;12858601;23;20200;-80
2021/09/01 11:48:08;;;;;;;5.93;3.45;;;;;22.50;102357.00;;;;12858792;22;20176;-80
2021/09/01 11:53:14;;;;;;;8.23;4.03;;;;;23.50;102345.00;;;;12834350;22;20667;-80
2021/09/01 11:58:16;;;;;;;5.38;3.42;;;;;26.00;102336.00;;;;12859589;22;20185;-80
2021/09/01 12:03:17;;;;;;;6.53;3.53;;;;;26.10;102342.00;;;;12930309;22;20613;-80
2021/09/01 12:08:20;;;;;;;4.22;3.40;;;;;25.30;102335.00;;;;12887726;22;20170;-80
2021/09/01 12:13:38;;;;;;;5.63;3.38;;;;;25.20;102339.00;;;;12884423;22;20176;-80
2021/09/01 12:18:56;;;;;;;8.05;3.72;;;;;25.30;102339.00;;;;12858399;23;20711;-80
2021/09/01 12:24:17;;;;;;;7.72;3.67;;;;;25.20;102339.00;;;;12884260;22;20265;-80
2021/09/01 12:29:43;;;;;;;4.88;3.85;;;;;25.00;102328.00;;;;12884989;22;20232;-80
2021/09/01 12:34:51;;;;;;;6.78;3.85;;;;;24.70;102345.00;;;;12870263;22;20170;-80
2021/09/01 12:39:58;;;;;;;5.97;3.45;;;;;25.00;102325.00;;;;12885236;22;20186;-80
2021/09/01 12:45:23;;;;;;;8.00;4.15;;;;;24.70;102332.00;;;;12885538;22;20170;-81
2021/09/01 12:50:33;;;;;;;7.53;4.72;;;;;24.20;102318.00;;;;12874087;22;20181;-82
2021/09/01 12:55:44;;;;;;;9.40;4.57;;;;;24.00;102331.00;;;;12884417;22;20260;-81
2021/09/01 13:00:46;;;;;;;8.00;4.65;;;;;23.50;102332.00;;;;12861559;22;20260;-81
2021/09/01 13:05:48;;;;;;;11.60;4.45;;;;;23.60;102329.00;;;;12910972;22;20161;-80
2021/09/01 13:10:49;;;;;;;8.77;4.80;;;;;24.10;102317.00;;;;12863446;22;20170;-81
2021/09/01 13:15:51;;;;;;;10.13;4.57;;;;;24.50;102311.00;;;;12911934;22;20201;-80
2021/09/01 13:20:55;;;;;;;7.70;3.97;;;;;24.70;102317.00;;;;12861377;22;20279;-81
2021/09/01 13:25:56;;;;;;;9.32;4.68;;;;;24.20;102327.00;;;;12888828;22;20174;-80
2021/09/01 13:30:57;;;;;;;7.45;3.92;;;;;23.80;102312.00;;;;12887483;23;20633;-80
2021/09/01 13:35:58;;;;;;;7.65;3.53;;;;;23.70;102307.00;;;;12888075;22;20213;-81
2021/09/01 13:41:01;;;;;;;3.45;3.15;;;;;23.90;102312.00;;;;12838235;22;20486;-81
2021/09/01 13:46:02;;;;;;;11.23;3.83;;;;;24.00;102314.00;;;;12886547;22;20252;-80
2021/09/01 13:51:03;;;;;;;8.80;3.80;;;;;24.10;102309.00;;;;12859540;22;20529;-81
2021/09/01 13:56:07;;;;;;;7.03;3.83;;;;;23.60;102306.00;;;;12859561;22;20166;-80
2021/09/01 14:01:09;;;;;;;7.68;4.57;;;;;23.30;102311.00;;;;12860782;22;20194;-81
2021/09/01 14:06:11;;;;;;;7.95;4.35;;;;;23.20;102303.00;;;;12863437;22;20541;-80
2021/09/01 14:11:12;;;;;;;8.23;4.55;;;;;23.30;102298.00;;;;12888704;22;20177;-80
2021/09/01 14:16:15;;;;;;;5.55;4.00;;;;;23.80;102305.00;;;;12932324;22;20200;-81
2021/09/01 14:21:17;;;;;;;7.68;4.15;;;;;23.70;102317.00;;;;12887716;22;20205;-80
2021/09/01 14:26:20;;;;;;;9.10;3.97;;;;;23.20;102315.00;;;;12860954;22;20669;-80
2021/09/01 14:31:21;;;;;;;6.20;3.67;;;;;22.70;102303.00;;;;12861764;22;20264;-80
2021/09/01 14:36:23;;;;;;;8.27;3.88;;;;;22.50;102301.00;;;;12888746;22;20169;-80
2021/09/01 14:41:24;;;;;;;8.27;3.30;;;;;22.50;102293.00;;;;12838274;22;20201;-80
2021/09/01 14:46:25;;;;;;;5.55;2.90;;;;;22.50;102299.00;;;;12862990;22;20177;-80
2021/09/01 14:51:26;;;;;;;6.30;3.15;;;;;22.30;102297.00;;;;12838769;22;20177;-80
2021/09/01 14:56:27;;;;;;;7.07;3.58;;;;;22.00;102305.00;;;;12863670;22;20173;-81
2021/09/01 15:01:31;;;;;;;6.07;2.90;;;;;21.70;102303.00;;;;12861378;22;20336;-80
2021/09/01 15:06:33;;;;;;;5.65;2.80;;;;;21.60;102294.00;;;;12861787;22;20236;-80
2021/09/01 15:11:34;;;;;;;5.30;3.30;;;;;21.60;102297.00;;;;12862969;22;20178;-80
2021/09/01 15:16:35;;;;;;;3.63;2.60;;;;;21.50;102293.00;;;;12862037;22;20186;-80
2021/09/01 15:21:37;;;;;;;6.35;3.40;;;;;21.30;102291.00;;;;12863542;22;20193;-80
2021/09/01 15:26:38;;;;;;;4.63;2.85;;;;;21.30;102291.00;;;;12861603;22;20174;-80
2021/09/01 15:31:39;;;;;;;6.70;3.10;;;;;21.30;102285.00;;;;12864097;22;20240;-80
2021/09/01 15:36:42;;;;;;;9.50;3.00;;;;;21.30;102278.00;;;;12887706;22;20688;-79
2021/09/01 15:41:44;;;;;;;5.53;2.65;;;;;21.30;102273.00;;;;12885446;22;21019;-80
2021/09/01 15:46:59;;;;;;;6.63;3.20;;;;;21.30;102264.00;;;;12884922;22;20200;-80
2021/09/01 15:52:02;;;;;;;6.30;2.72;;;;;21.10;102258.00;;;;12887952;22;20268;-80
2021/09/01 15:57:08;;;;;;;5.57;2.50;;;;;21.00;102251.00;;;;12839072;22;20679;-79
2021/09/01 16:02:11;;;;;;;6.35;3.03;;;;;20.90;102245.00;;;;12886218;22;20197;-79
2021/09/01 16:07:13;;;;;;;5.60;3.25;;;;;20.80;102239.00;;;;12886826;22;20221;-80
2021/09/01 16:12:19;;;;;;;6.65;4.28;;;;;20.70;102239.00;;;;12861296;22;20182;-79
2021/09/01 16:17:29;;;;;;;7.72;3.88;;;;;20.60;102235.00;;;;12887945;22;20201;-80
2021/09/01 16:22:56;;;;;;;8.18;4.25;;;;;20.50;102237.00;;;;12885598;22;20193;-79
2021/09/01 16:28:00;;;;;;;4.35;3.65;;;;;20.30;102237.00;;;;12862408;22;20232;-80
2021/09/01 16:33:04;;;;;;;7.57;3.50;;;;;20.10;102243.00;;;;12885613;22;20181;-80
2021/09/01 16:38:14;;;;;;;11.68;4.03;;;;;20.00;102228.00;;;;12887606;22;20170;-80
2021/09/01 16:43:15;;;;;;;9.07;3.13;;;;;19.90;102239.00;;;;12840326;22;20208;-80
2021/09/01 16:48:17;;;;;;;7.13;3.05;;;;;19.70;102238.00;;;;12867745;22;20178;-79
2021/09/01 16:53:23;;;;;;;8.57;3.67;;;;;19.70;102237.00;;;;12890258;22;20181;-80
2021/09/01 16:58:26;;;;;;;6.88;2.67;;;;;19.70;102237.00;;;;12866078;22;20170;-80
2021/09/01 17:03:31;;;;;;;7.50;3.20;;;;;19.60;102242.00;;;;12865684;22;20684;-80
2021/09/01 17:08:35;;;;;;;11.32;2.92;;;;;19.50;102237.00;;;;12838685;22;20174;-80
2021/09/01 17:13:38;;;;;;;10.55;3.97;;;;;19.30;102236.00;;;;12886850;22;20178;-80
2021/09/01 17:18:39;;;;;;;7.13;3.10;;;;;19.10;102235.00;;;;12932162;22;20190;-80
2021/09/01 17:23:41;;;;;;;9.23;3.63;;;;;18.90;102241.00;;;;12885896;22;20182;-80
2021/09/01 17:28:58;;;;;;;4.90;3.10;;;;;18.80;102246.00;;;;12864061;22;20580;-80
2021/09/01 17:34:01;;;;;;;6.13;3.58;;;;;18.60;102238.00;;;;12864476;22;20184;-80
2021/09/01 17:39:05;;;;;;;8.95;3.60;;;;;18.60;102247.00;;;;12863312;22;20193;-80
2021/09/01 17:44:06;;;;;;;10.50;3.63;;;;;18.50;102247.00;;;;12862734;22;20181;-80
2021/09/01 17:49:07;;;;;;;10.68;3.45;;;;;18.40;102241.00;;;;12862934;22;20177;-80
2021/09/01 17:54:09;;;;;;;8.27;3.53;;;;;18.30;102242.00;;;;12881445;22;20252;-80
2021/09/01 17:59:10;;;;;;;7.47;3.33;;;;;18.10;102240.00;;;;12886543;22;20299;-80
2021/09/01 18:04:11;;;;;;;6.72;3.60;;;;;18.00;102255.00;;;;12884832;22;20180;-80
2021/09/01 18:09:12;;;;;;;6.70;3.42;;;;;17.90;102237.00;;;;12904952;22;20216;-79
2021/09/01 18:14:15;;;;;;;4.68;3.30;;;;;17.80;102243.00;;;;12861831;22;20220;-79
2021/09/01 18:19:17;;;;;;;7.35;4.15;;;;;17.80;102254.00;;;;12884354;22;20198;-79
2021/09/01 18:24:18;;;;;;;8.13;3.70;;;;;17.70;102252.00;;;;12859718;22;20200;-79
2021/09/01 18:29:19;;;;;;;9.02;3.53;;;;;17.60;102247.00;;;;12836215;22;20170;-79
2021/09/01 18:34:22;;;;;;;8.88;3.67;;;;;17.50;102258.00;;;;12885192;22;20609;-79
2021/09/01 18:39:24;;;;;;;8.85;4.57;;;;;17.50;102260.00;;;;12885559;22;20784;-79
2021/09/01 18:44:25;;;;;;;7.45;3.67;;;;;17.40;102262.00;;;;12885530;22;20240;-79
2021/09/01 18:49:26;;;;;;;12.27;4.10;;;;;17.40;102263.00;;;;12886018;22;20692;-80
2021/09/01 18:54:28;;;;;;;10.02;4.30;;;;;17.30;102270.00;;;;12861862;22;20196;-79
2021/09/01 18:59:30;;;;;;;9.90;4.13;;;;;17.30;102271.00;;;;12859419;22;20200;-79
2021/09/01 19:04:33;;;;;;;8.30;3.95;;;;;17.30;102277.00;;;;12860381;22;20173;-80
2021/09/01 19:09:56;;;;;;;6.20;3.80;;;;;17.30;102278.00;;;;12861104;22;20257;-80
2021/09/01 19:15:00;;;;;;;9.02;4.20;;;;;17.20;102285.00;;;;12861834;22;20178;-80
2021/09/01 19:20:03;;;;;;;7.53;3.80;;;;;17.20;102279.00;;;;12884217;22;20734;-80
2021/09/01 19:25:06;;;;;;;6.80;4.18;;;;;17.10;102281.00;;;;12861428;22;20184;-80
2021/09/01 19:30:13;;;;;;;8.07;4.38;;;;;17.00;102285.00;;;;12887027;22;20521;-80
2021/09/01 19:35:15;;;;;;;20.83;5.00;;;;;17.00;102289.00;;;;12882789;22;20474;-80
2021/09/01 19:40:19;;;;;;;12.93;4.00;;;;;16.90;102295.00;;;;12932463;22;20193;-80
2021/09/01 19:45:21;;;;;;;9.63;4.78;;;;;16.80;102305.00;;;;12885840;22;20169;-79
2021/09/01 19:50:23;;;;;;;11.07;4.53;;;;;16.80;102294.00;;;;12862036;22;20227;-80
2021/09/01 19:55:25;;;;;;;10.70;4.53;;;;;16.80;102297.00;;;;12885721;22;20169;-80
2021/09/01 20:00:27;;;;;;;9.25;4.28;;;;;16.80;102295.00;;;;12882817;22;20202;-80
2021/09/01 20:05:28;;;;;;;13.98;5.28;;;;;16.70;102297.00;;;;12858235;22;20173;-79
2021/09/01 20:10:31;;;;;;;7.53;4.78;;;;;16.70;102298.00;;;;12859187;22;20177;-79
2021/09/01 20:15:32;;;;;;;10.40;4.80;;;;;16.70;102308.00;;;;12862630;22;20256;-79
2021/09/01 20:20:36;;;;;;;5.88;4.18;;;;;16.70;102312.00;;;;12862408;22;20892;-79
2021/09/01 20:25:38;;;;;;;9.80;4.95;;;;;16.70;102309.00;;;;12871668;22;20169;-79
2021/09/01 20:30:39;;;;;;;9.35;4.47;;;;;16.70;102308.00;;;;12825817;22;20204;-79
2021/09/01 20:35:41;;;;;;;11.63;4.88;;;;;16.60;102316.00;;;;12869347;22;20169;-80
2021/09/01 20:40:43;;;;;;;10.17;4.90;;;;;16.70;102314.00;;;;12845451;22;21053;-80
2021/09/01 20:45:47;;;;;;;7.13;4.70;;;;;16.60;102321.00;;;;12870566;22;20169;-80
2021/09/01 20:50:48;;;;;;;9.82;4.50;;;;;16.60;102315.00;;;;12845254;22;20618;-80
2021/09/01 20:55:49;;;;;;;7.47;4.27;;;;;16.60;102315.00;;;;12868769;22;20226;-80
2021/09/01 21:00:50;;;;;;;7.45;4.00;;;;;16.60;102316.00;;;;12844068;23;20532;-80
2021/09/01 21:05:55;;;;;;;7.30;4.73;;;;;16.60;102319.00;;;;12870934;22;20177;-80
2021/09/01 21:10:56;;;;;;;12.93;5.25;;;;;16.60;102313.00;;;;12845845;22;20174;-80
2021/09/01 21:16:06;;;;;;;12.10;5.22;;;;;16.60;102314.00;;;;12870914;22;20189;-79
2021/09/01 21:21:11;;;;;;;15.03;5.00;;;;;16.60;102315.00;;;;12863076;22;20675;-80
2021/09/01 21:26:15;;;;;;;11.63;5.30;;;;;16.60;102320.00;;;;12847333;22;20177;-80
2021/09/01 21:31:18;;;;;;;10.03;5.37;;;;;16.50;102317.00;;;;12843432;22;20174;-81
2021/09/01 21:36:19;;;;;;;9.53;4.90;;;;;16.50;102327.00;;;;12844186;22;20701;-80
2021/09/01 21:41:21;;;;;;;13.03;5.97;;;;;16.50;102320.00;;;;12844143;22;20902;-80
2021/09/01 21:46:22;;;;;;;10.50;5.10;;;;;16.50;102321.00;;;;12874266;23;20166;-80
2021/09/01 21:51:25;;;;;;;11.13;4.87;;;;;16.50;102321.00;;;;12863327;22;20185;-81
2021/09/01 21:56:28;;;;;;;9.13;5.00;;;;;16.50;102322.00;;;;12843656;22;20174;-81
2021/09/01 22:01:30;;;;;;;9.43;4.82;;;;;16.50;102309.00;;;;12892134;22;20197;-80
2021/09/01 22:06:33;;;;;;;9.50;5.22;;;;;16.50;102310.00;;;;12892598;22;20252;-80
2021/09/01 22:11:34;;;;;;;12.60;5.53;;;;;16.50;102315.00;;;;12888132;22;20205;-80
2021/09/01 22:16:36;;;;;;;9.82;5.43;;;;;16.40;102317.00;;;;12865040;22;20193;-80
2021/09/01 22:21:38;;;;;;;11.25;4.95;;;;;16.40;102314.00;;;;12916793;22;20201;-80
2021/09/01 22:26:39;;;;;;;8.00;4.45;;;;;16.40;102317.00;;;;12893323;23;20170;-82
2021/09/01 22:31:40;;;;;;;7.10;4.65;;;;;16.40;102306.00;;;;12869725;22;20498;-81
2021/09/01 22:36:42;;;;;;;9.57;5.23;;;;;16.40;102303.00;;;;12845013;22;20180;-81
2021/09/01 22:41:44;;;;;;;10.77;4.80;;;;;16.30;102306.00;;;;12871671;22;20339;-81
2021/09/01 22:46:45;;;;;;;8.30;4.83;;;;;16.30;102296.00;;;;12823138;22;20566;-82
2021/09/01 22:51:48;;;;;;;8.30;5.17;;;;;16.30;102295.00;;;;12896740;22;20676;-80
2021/09/01 22:56:49;;;;;;;10.70;5.07;;;;;16.30;102289.00;;;;12869524;22;20240;-80
2021/09/01 23:01:50;;;;;;;12.27;5.67;;;;;16.30;102293.00;;;;12870551;22;20193;-79
2021/09/01 23:06:52;;;;;;;10.17;4.83;;;;;16.30;102287.00;;;;12940913;22;20196;-80
2021/09/01 23:11:53;;;;;;;10.60;5.83;;;;;16.20;102291.00;;;;12869497;22;20170;-80
2021/09/01 23:16:54;;;;;;;12.07;6.07;;;;;16.20;102284.00;;;;12868850;22;20240;-80
2021/09/01 23:21:55;;;;;;;10.60;6.30;;;;;16.20;102280.00;;;;12893342;22;20193;-80
2021/09/01 23:26:56;;;;;;;10.10;6.37;;;;;16.20;102284.00;;;;12869248;22;20753;-80
2021/09/01 23:32:01;;;;;;;11.47;6.53;;;;;16.10;102283.00;;;;12893113;23;20177;-80
2021/09/01 23:37:03;;;;;;;11.57;6.30;;;;;16.10;102287.00;;;;12868903;22;20248;-80
2021/09/01 23:42:04;;;;;;;9.23;6.90;;;;;16.10;102287.00;;;;12844658;22;20637;-80
2021/09/01 23:47:05;;;;;;;17.77;7.23;;;;;16.10;102297.00;;;;12870966;22;20173;-80
2021/09/01 23:52:06;;;;;;;11.07;7.50;;;;;16.10;102296.00;;;;12893232;22;20349;-80
2021/09/01 23:57:08;;;;;;;15.13;6.87;;;;;16.10;102297.00;;;;12893773;22;20174;-81
